In Rescue
 
Open Full Screen Window  High Contrast Mode
Wind Gusting 00 knots
06
March 19, 2019 7:27 PM EDT
Weather Information
Wind Direction
  250 °
Wind Speed
  06 kt (7 mph)
Wind Gust
  00 kt (0 mph)
Altimeter
30.21 in
Visibility
10 SM
Temperature
04° C
39° F
Dewpoint
-08° C
18° F
Humidity
42%
Sky Condition
Clear
VFR

METAR KCAD 192327Z AUTO 25006KT 10SM CLR 04/M08 A3021 RMK AO2 T00441090

FAA Disclaimer: The data displayed is for advisory purposes only and is not to be used for flight planning or operations.